createdAt,value
2023-01-22T00:01:08.919Z,121.97
2023-01-22T00:03:36.753Z,162.15
2023-01-22T00:06:04.039Z,123.25
2023-01-22T00:08:31.206Z,177.85
2023-01-22T00:10:58.429Z,160.02
2023-01-22T00:13:26.618Z,168.25
2023-01-22T00:15:54.097Z,147.38
2023-01-22T00:18:21.333Z,170.13
2023-01-22T00:20:49.119Z,124.90
2023-01-22T00:23:16.348Z,122.82
2023-01-22T00:25:43.627Z,177.80
2023-01-22T00:28:10.932Z,135.57
2023-01-22T00:30:38.165Z,126.97
2023-01-22T00:33:05.504Z,135.45
2023-01-22T00:35:34.466Z,128.27
2023-01-22T00:38:01.755Z,183.25
2023-01-22T00:40:28.956Z,127.22
2023-01-22T00:42:56.111Z,173.15
2023-01-22T00:45:23.289Z,127.13
2023-01-22T00:47:51.484Z,137.65
2023-01-22T00:50:19.077Z,184.23
2023-01-22T00:52:46.612Z,127.18
2023-01-22T00:55:13.861Z,137.32
2023-01-22T00:57:41.050Z,131.10
2023-01-22T01:00:08.590Z,174.60
2023-01-22T01:02:55.699Z,172.52
2023-01-22T01:05:22.844Z,187.02
2023-01-22T01:07:50.040Z,175.52
2023-01-22T01:10:17.724Z,138.95
2023-01-22T01:12:45.050Z,186.52
2023-01-22T01:15:12.383Z,128.13
2023-01-22T01:17:39.585Z,170.27
2023-01-22T01:20:06.968Z,134.38
2023-01-22T01:22:34.156Z,187.68
2023-01-22T01:25:01.397Z,127.90
2023-01-22T01:27:31.566Z,171.00
2023-01-22T01:29:59.378Z,133.05
2023-01-22T01:32:26.528Z,176.77
2023-01-22T01:34:53.682Z,128.85
2023-01-22T01:37:20.931Z,179.20
2023-01-22T01:39:52.370Z,135.55
2023-01-22T01:42:27.065Z,138.27
2023-01-22T01:45:12.840Z,127.43
2023-01-22T01:47:39.983Z,179.70
2023-01-22T01:50:07.528Z,125.40
2023-01-22T01:52:34.629Z,170.65
2023-01-22T01:55:01.810Z,186.35
2023-01-22T01:57:30.803Z,116.78
2023-01-22T01:59:58.918Z,122.25
2023-01-22T02:02:26.119Z,176.52
2023-01-22T02:04:53.562Z,183.95
2023-01-22T02:07:21.310Z,178.18
2023-01-22T02:09:48.533Z,131.38
2023-01-22T02:12:15.839Z,126.00
2023-01-22T02:14:45.856Z,137.40
2023-01-22T02:17:14.459Z,185.45
2023-01-22T02:19:42.172Z,121.95
2023-01-22T02:22:20.133Z,135.23
2023-01-22T02:24:47.354Z,139.95
2023-01-22T02:27:14.540Z,134.43
2023-01-22T02:29:42.008Z,139.05
2023-01-22T02:32:09.439Z,181.68
2023-01-22T02:34:36.627Z,139.88
2023-01-22T02:37:03.872Z,167.65
2023-01-22T02:39:31.057Z,182.00
2023-01-22T02:41:58.378Z,134.05
2023-01-22T02:44:25.546Z,191.10
2023-01-22T02:46:52.649Z,123.30
2023-01-22T02:49:19.809Z,132.27
2023-01-22T02:51:47.145Z,122.80
2023-01-22T02:54:14.300Z,130.05
2023-01-22T02:56:41.452Z,118.97
2023-01-22T02:59:08.579Z,169.93
2023-01-22T03:01:35.748Z,133.48
2023-01-22T03:04:13.682Z,134.50
2023-01-22T03:06:42.460Z,179.88
2023-01-22T03:09:10.468Z,161.80
2023-01-22T03:11:38.488Z,168.50
2023-01-22T03:14:24.801Z,119.05
2023-01-22T03:17:10.745Z,172.32
2023-01-22T03:19:56.720Z,190.00
2023-01-22T03:22:23.951Z,142.27
2023-01-22T03:24:52.692Z,134.57
2023-01-22T03:27:20.972Z,182.60
2023-01-22T03:29:48.305Z,127.70
2023-01-22T03:32:15.518Z,118.32
2023-01-22T03:34:42.862Z,176.30
2023-01-22T03:37:12.799Z,170.35
2023-01-22T03:39:40.472Z,128.98
2023-01-22T03:42:08.358Z,133.77
2023-01-22T03:44:35.575Z,129.20
2023-01-22T03:47:02.787Z,157.93
2023-01-22T03:49:29.902Z,183.90
2023-01-22T03:51:58.109Z,124.80
2023-01-22T03:54:25.489Z,130.85
2023-01-22T03:56:52.668Z,161.40
2023-01-22T03:59:19.861Z,121.30
2023-01-22T04:01:47.179Z,124.90
2023-01-22T04:04:14.303Z,118.15
2023-01-22T04:06:41.463Z,122.65
2023-01-22T04:09:08.643Z,154.40
2023-01-22T04:11:35.737Z,172.75
2023-01-22T04:14:02.945Z,127.45
2023-01-22T04:16:30.104Z,129.38
2023-01-22T04:18:57.268Z,164.35
2023-01-22T04:21:24.471Z,169.18
2023-01-22T04:23:51.615Z,133.50
2023-01-22T04:26:18.743Z,125.97
2023-01-22T04:28:45.877Z,178.35
2023-01-22T04:31:13.091Z,179.23
2023-01-22T04:33:40.277Z,127.90
2023-01-22T04:36:08.605Z,172.75
2023-01-22T04:38:35.742Z,124.15
2023-01-22T04:41:02.907Z,159.13
2023-01-22T04:43:30.016Z,120.38
2023-01-22T04:45:57.259Z,124.57
2023-01-22T04:48:24.446Z,150.80
2023-01-22T04:50:51.608Z,179.57
2023-01-22T04:53:18.761Z,127.43
2023-01-22T04:55:45.908Z,132.73
2023-01-22T04:58:13.066Z,167.82
2023-01-22T05:00:40.242Z,155.07
2023-01-22T05:03:07.386Z,151.05
2023-01-22T05:05:34.839Z,135.23
2023-01-22T05:08:02.219Z,159.70
2023-01-22T05:10:29.607Z,126.43
2023-01-22T05:12:57.271Z,125.05
2023-01-22T05:15:25.348Z,125.65
2023-01-22T05:17:53.185Z,170.98
2023-01-22T05:20:20.927Z,236.82
2023-01-22T05:22:48.246Z,129.98
2023-01-22T05:25:15.499Z,163.73
2023-01-22T05:27:42.695Z,117.47
2023-01-22T05:30:10.624Z,170.15
2023-01-22T05:32:38.209Z,134.32
2023-01-22T05:35:06.263Z,124.85
2023-01-22T05:37:33.504Z,137.65
2023-01-22T05:40:00.770Z,122.28
2023-01-22T05:42:27.958Z,129.68
2023-01-22T05:44:55.128Z,136.98
2023-01-22T05:47:22.340Z,129.15
2023-01-22T05:49:49.558Z,129.73
2023-01-22T05:52:16.775Z,159.05
2023-01-22T05:54:43.939Z,167.63
2023-01-22T05:57:11.129Z,169.52
2023-01-22T05:59:38.268Z,172.00
2023-01-22T06:02:05.495Z,171.95
2023-01-22T06:04:32.632Z,173.90
2023-01-22T06:06:59.860Z,121.00
2023-01-22T06:09:27.058Z,124.25
2023-01-22T06:11:54.240Z,121.45
2023-01-22T06:14:21.450Z,115.60
2023-01-22T06:16:48.647Z,126.15
2023-01-22T06:19:15.862Z,159.18
2023-01-22T06:21:43.881Z,110.35
2023-01-22T06:24:11.538Z,172.02
2023-01-22T06:26:38.779Z,155.50
2023-01-22T06:29:06.043Z,162.90
2023-01-22T06:31:33.421Z,112.22
2023-01-22T06:34:00.639Z,164.63
2023-01-22T06:36:27.999Z,121.20
2023-01-22T06:38:55.225Z,111.57
2023-01-22T06:41:23.446Z,163.23
2023-01-22T06:43:50.642Z,116.93
2023-01-22T06:46:17.890Z,114.18
2023-01-22T06:48:47.540Z,109.35
2023-01-22T06:51:15.838Z,119.15
2023-01-22T06:53:43.122Z,168.60
2023-01-22T06:56:10.331Z,145.13
2023-01-22T06:58:37.452Z,144.60
2023-01-22T07:01:05.798Z,115.22
2023-01-22T07:03:33.164Z,169.40
2023-01-22T07:06:01.227Z,140.40
2023-01-22T07:08:29.517Z,139.75
2023-01-22T07:10:56.874Z,112.13
2023-01-22T07:13:24.050Z,100.25
2023-01-22T07:15:51.507Z,112.13
2023-01-22T07:18:20.921Z,113.95
2023-01-22T07:20:48.221Z,141.85
2023-01-22T07:23:15.348Z,158.68
2023-01-22T07:25:44.674Z,151.82
2023-01-22T07:28:14.792Z,132.13
2023-01-22T07:30:42.386Z,112.38
2023-01-22T07:33:11.252Z,111.68
2023-01-22T07:35:38.431Z,113.20
2023-01-22T07:38:05.612Z,99.95
2023-01-22T07:40:32.997Z,146.45
2023-01-22T07:43:00.110Z,103.03
2023-01-22T07:45:27.381Z,105.20
2023-01-22T07:47:58.859Z,110.00
2023-01-22T07:50:30.311Z,105.15
2023-01-22T07:52:58.049Z,110.18
2023-01-22T07:55:25.248Z,131.95
2023-01-22T07:57:59.558Z,101.43
2023-01-22T08:00:26.995Z,98.68
2023-01-22T08:02:54.754Z,132.20
2023-01-22T08:05:22.144Z,109.32
2023-01-22T08:07:49.719Z,143.27
2023-01-22T08:10:17.634Z,133.60
2023-01-22T08:12:46.549Z,105.70
2023-01-22T08:15:14.599Z,104.72
2023-01-22T08:17:42.281Z,150.27
2023-01-22T08:20:10.121Z,109.90
2023-01-22T08:22:37.326Z,154.18
2023-01-22T08:25:04.938Z,147.52
2023-01-22T08:27:32.245Z,158.98
2023-01-22T08:29:59.460Z,113.03
2023-01-22T08:32:27.614Z,131.50
2023-01-22T08:34:54.793Z,117.35
2023-01-22T08:37:22.564Z,108.68
2023-01-22T08:39:49.739Z,110.07
2023-01-22T08:42:17.036Z,135.00
2023-01-22T08:44:44.297Z,107.03
2023-01-22T08:47:11.642Z,143.93
2023-01-22T08:49:38.884Z,137.15
2023-01-22T08:52:08.732Z,146.27
2023-01-22T08:54:35.934Z,113.53
2023-01-22T08:57:03.058Z,140.25
2023-01-22T08:59:31.251Z,132.82
2023-01-22T09:01:59.532Z,98.68
2023-01-22T09:04:27.097Z,129.75
2023-01-22T09:06:54.235Z,103.90
2023-01-22T09:09:21.629Z,100.20
2023-01-22T09:11:48.843Z,100.20
2023-01-22T09:14:16.234Z,98.53
2023-01-22T09:16:43.543Z,149.18
2023-01-22T09:19:10.841Z,111.32
2023-01-22T09:21:38.130Z,104.55
2023-01-22T09:24:06.176Z,117.60
2023-01-22T09:26:33.550Z,105.18
2023-01-22T09:29:01.164Z,116.28
2023-01-22T09:31:28.885Z,146.07
2023-01-22T09:33:56.238Z,102.93
2023-01-22T09:36:23.548Z,92.60
2023-01-22T09:38:50.770Z,92.47
2023-01-22T09:41:47.619Z,96.65
2023-01-22T09:44:20.444Z,95.43
2023-01-22T09:46:50.931Z,128.68
2023-01-22T09:49:19.926Z,109.35
2023-01-22T09:51:57.629Z,96.78
2023-01-22T09:54:25.322Z,93.07
2023-01-22T09:56:53.884Z,95.88
2023-01-22T09:59:28.125Z,132.15
2023-01-22T10:02:00.679Z,90.30
2023-01-22T10:04:32.063Z,118.28
2023-01-22T10:07:00.496Z,94.90
2023-01-22T10:09:30.422Z,113.95
2023-01-22T10:11:58.880Z,127.82
2023-01-22T10:14:28.512Z,85.93
2023-01-22T10:16:59.117Z,122.07
2023-01-22T10:19:26.328Z,126.88
2023-01-22T10:22:13.011Z,140.88
2023-01-22T10:24:40.400Z,106.30
2023-01-22T10:27:12.809Z,107.93
2023-01-22T10:29:40.608Z,138.68
2023-01-22T10:32:21.028Z,104.50
2023-01-22T10:35:00.050Z,131.02
2023-01-22T10:37:27.285Z,95.15
2023-01-22T10:39:57.565Z,88.22
2023-01-22T10:42:26.037Z,132.40
2023-01-22T10:44:57.407Z,121.45
2023-01-22T10:47:27.481Z,128.13
2023-01-22T10:50:06.313Z,85.75
2023-01-22T10:52:42.108Z,129.98
2023-01-22T10:55:20.615Z,89.25
2023-01-22T10:57:50.478Z,116.03
2023-01-22T11:00:46.434Z,115.18
2023-01-22T11:03:22.739Z,124.97
2023-01-22T11:05:53.087Z,85.38
2023-01-22T11:08:20.944Z,115.68
2023-01-22T11:10:58.751Z,106.47
2023-01-22T11:13:28.926Z,105.40
2023-01-22T11:16:16.302Z,68.82
2023-01-22T11:18:45.000Z,31.92
2023-01-22T11:21:16.917Z,52.55
2023-01-22T11:23:54.868Z,12.13
2023-01-22T11:26:22.161Z,12.80
2023-01-22T11:28:52.490Z,13.82
2023-01-22T11:31:44.375Z,18.13
2023-01-22T11:34:20.670Z,12.13
2023-01-22T11:37:00.011Z,16.95
2023-01-22T11:39:33.181Z,19.35
2023-01-22T11:44:30.525Z,34.50
2023-01-22T11:47:19.548Z,44.15
2023-01-22T11:49:50.068Z,29.27
2023-01-22T11:52:37.935Z,91.72
2023-01-22T11:55:18.984Z,100.75
2023-01-22T11:58:09.507Z,24.65
2023-01-22T12:00:44.673Z,36.30
2023-01-22T12:03:30.720Z,23.63
2023-01-22T12:05:57.905Z,12.13
2023-01-22T12:08:36.865Z,16.05
2023-01-22T12:11:16.353Z,36.08
2023-01-22T12:14:02.438Z,23.80
2023-01-22T12:16:48.365Z,12.57
2023-01-22T12:19:41.859Z,14.93
2023-01-22T12:22:12.650Z,13.82
2023-01-22T12:24:52.645Z,13.82
2023-01-22T12:27:29.175Z,12.95
2023-01-22T12:30:01.017Z,13.63
2023-01-22T12:32:29.847Z,11.65
2023-01-22T12:35:01.254Z,14.75
2023-01-22T12:37:34.066Z,12.32
2023-01-22T12:40:01.225Z,11.73
2023-01-22T12:42:32.408Z,12.25
2023-01-22T12:45:17.676Z,11.30
2023-01-22T12:47:54.587Z,11.93
2023-01-22T12:50:23.320Z,13.15
2023-01-22T12:53:04.032Z,11.48
2023-01-22T12:55:31.190Z,13.48
2023-01-22T12:57:59.072Z,12.27
2023-01-22T13:00:26.465Z,14.02
2023-01-22T13:02:54.900Z,12.90
2023-01-22T13:05:22.088Z,12.80
2023-01-22T13:07:52.222Z,13.88
2023-01-22T13:10:22.197Z,14.30
2023-01-22T13:12:53.639Z,13.38
2023-01-22T13:15:23.747Z,13.40
2023-01-22T13:18:06.221Z,13.52
2023-01-22T13:20:38.797Z,12.88
2023-01-22T13:23:07.384Z,14.35
2023-01-22T13:25:34.799Z,14.85
2023-01-22T13:28:03.097Z,13.48
2023-01-22T13:30:33.567Z,15.27
2023-01-22T13:33:03.962Z,15.18
2023-01-22T13:35:31.198Z,14.32
2023-01-22T13:37:58.452Z,14.75
2023-01-22T13:40:27.270Z,12.40
2023-01-22T13:42:55.243Z,12.48
2023-01-22T13:45:30.254Z,13.45
2023-01-22T13:47:58.431Z,13.88
2023-01-22T13:50:26.917Z,15.23
2023-01-22T13:52:54.360Z,13.10
2023-01-22T13:55:22.931Z,15.00
2023-01-22T13:57:54.269Z,13.88
2023-01-22T14:00:22.902Z,13.45
2023-01-22T14:02:50.136Z,13.18
2023-01-22T14:05:18.692Z,14.43
2023-01-22T14:07:45.850Z,11.48
2023-01-22T14:10:13.077Z,12.57
2023-01-22T14:12:40.303Z,12.63
2023-01-22T14:15:14.701Z,12.02
2023-01-22T14:17:41.998Z,11.90
2023-01-22T14:20:09.572Z,11.77
2023-01-22T14:22:36.724Z,11.85
2023-01-22T14:25:04.617Z,10.27
2023-01-22T14:27:43.984Z,17.40
2023-01-22T14:30:14.534Z,16.83
2023-01-22T14:32:43.145Z,22.80
2023-01-22T14:35:16.400Z,18.02
2023-01-22T14:40:14.812Z,25.30
2023-01-22T14:42:42.075Z,27.17
2023-01-22T14:45:09.699Z,20.95
2023-01-22T14:47:36.877Z,22.35
2023-01-22T14:50:04.304Z,24.85
2023-01-22T14:52:31.521Z,23.15
2023-01-22T14:54:58.711Z,28.27
2023-01-22T14:57:26.285Z,22.50
2023-01-22T14:59:53.526Z,24.80
2023-01-22T15:02:20.753Z,26.48
2023-01-22T15:04:48.104Z,20.98
2023-01-22T15:07:15.326Z,23.08
2023-01-22T15:09:43.677Z,24.15
2023-01-22T15:12:11.221Z,25.02
2023-01-22T15:14:38.371Z,21.35
2023-01-22T15:17:05.571Z,21.90
2023-01-22T15:19:40.905Z,22.33
2023-01-22T15:22:08.493Z,19.58
2023-01-22T15:24:35.648Z,24.70
2023-01-22T15:27:02.935Z,26.20
2023-01-22T15:29:30.095Z,24.30
2023-01-22T15:31:58.082Z,20.17
2023-01-22T15:34:25.367Z,28.58
2023-01-22T15:36:52.562Z,29.27
2023-01-22T15:39:19.726Z,30.02
2023-01-22T15:41:47.373Z,21.98
2023-01-22T15:44:14.241Z,24.55
2023-01-22T15:46:42.301Z,21.83
2023-01-22T15:49:10.440Z,23.67
2023-01-22T15:51:39.790Z,19.95
2023-01-22T15:54:07.857Z,21.20
2023-01-22T15:56:36.133Z,19.63
2023-01-22T15:59:03.682Z,18.67
2023-01-22T16:01:31.146Z,19.90
2023-01-22T16:03:58.492Z,16.77
2023-01-22T16:06:29.814Z,17.63
2023-01-22T16:08:58.019Z,21.05
2023-01-22T16:11:25.795Z,19.73
2023-01-22T16:13:52.972Z,22.80
2023-01-22T16:16:22.012Z,19.00
2023-01-22T16:18:49.861Z,15.57
2023-01-22T16:21:17.637Z,19.85
2023-01-22T16:23:45.899Z,20.25
2023-01-22T16:26:16.335Z,16.63
2023-01-22T16:28:44.137Z,19.63
2023-01-22T16:31:13.141Z,18.33
2023-01-22T16:33:42.237Z,17.58
2023-01-22T16:36:12.140Z,21.05
2023-01-22T16:38:39.950Z,17.38
2023-01-22T16:41:26.289Z,18.05
2023-01-22T16:43:55.173Z,21.55
2023-01-22T16:46:23.925Z,18.85
2023-01-22T16:48:55.737Z,22.55
2023-01-22T16:51:25.044Z,21.00
2023-01-22T16:53:52.525Z,18.63
2023-01-22T16:56:19.768Z,18.20
2023-01-22T16:58:46.965Z,16.40
2023-01-22T17:01:14.764Z,19.90
2023-01-22T17:03:42.583Z,17.70
2023-01-22T17:06:18.590Z,19.33
2023-01-22T17:08:45.729Z,23.08
2023-01-22T17:11:17.366Z,22.83
2023-01-22T17:13:44.752Z,18.52
2023-01-22T17:16:12.367Z,17.45
2023-01-22T17:18:39.537Z,19.38
2023-01-22T17:21:07.640Z,25.63
2023-01-22T17:23:34.815Z,28.05
2023-01-22T17:26:05.531Z,23.42
2023-01-22T17:28:35.382Z,31.05
2023-01-22T17:31:05.172Z,30.63
2023-01-22T17:33:32.451Z,24.83
2023-01-22T17:36:00.762Z,22.48
2023-01-22T17:38:29.126Z,30.40
2023-01-22T17:40:56.934Z,31.50
2023-01-22T17:43:24.606Z,23.50
2023-01-22T17:45:53.930Z,30.73
2023-01-22T17:48:21.212Z,25.88
2023-01-22T17:50:49.960Z,29.70
2023-01-22T17:53:18.021Z,27.58
2023-01-22T17:55:45.271Z,34.83
2023-01-22T17:58:12.490Z,32.90
2023-01-22T18:00:39.651Z,33.33
2023-01-22T18:03:06.898Z,29.17
2023-01-22T18:05:34.551Z,28.77
2023-01-22T18:08:01.747Z,25.83
2023-01-22T18:10:30.551Z,40.47
2023-01-22T18:12:57.653Z,37.78
2023-01-22T18:15:24.809Z,29.95
2023-01-22T18:17:51.928Z,35.88
2023-01-22T18:20:19.102Z,30.05
2023-01-22T18:22:46.328Z,31.88
2023-01-22T18:25:13.531Z,26.05
2023-01-22T18:27:40.744Z,30.67
2023-01-22T18:30:08.224Z,23.95
2023-01-22T18:32:35.850Z,23.42
2023-01-22T18:35:03.329Z,27.88
2023-01-22T18:37:33.741Z,34.47
2023-01-22T18:40:01.272Z,31.85
2023-01-22T18:42:28.744Z,33.78
2023-01-22T18:44:56.499Z,30.98
2023-01-22T18:47:23.631Z,25.00
2023-01-22T18:49:50.967Z,34.70
2023-01-22T18:52:18.101Z,30.85
2023-01-22T18:54:45.749Z,35.67
2023-01-22T18:57:12.865Z,26.95
2023-01-22T18:59:40.341Z,24.42
2023-01-22T19:02:09.084Z,25.02
2023-01-22T19:04:36.395Z,24.60
2023-01-22T19:07:04.218Z,27.38
2023-01-22T19:09:31.939Z,34.08
2023-01-22T19:11:59.258Z,38.42
2023-01-22T19:14:27.110Z,29.77
2023-01-22T19:16:54.800Z,28.67
2023-01-22T19:19:22.829Z,28.77
2023-01-22T19:21:52.428Z,26.88
2023-01-22T19:24:22.431Z,31.08
2023-01-22T19:26:51.381Z,38.15
2023-01-22T19:29:18.763Z,36.78
2023-01-22T19:31:47.194Z,35.85
2023-01-22T19:34:18.539Z,33.00
2023-01-22T19:36:45.647Z,30.33
2023-01-22T19:39:13.353Z,28.55
2023-01-22T19:41:41.126Z,39.53
2023-01-22T19:44:09.262Z,36.05
2023-01-22T19:46:37.849Z,26.80
2023-01-22T19:49:05.302Z,32.75
2023-01-22T19:51:32.637Z,33.88
2023-01-22T19:54:00.820Z,26.50
2023-01-22T19:56:29.630Z,26.10
2023-01-22T19:59:01.572Z,30.42
2023-01-22T20:01:28.869Z,29.38
2023-01-22T20:03:56.399Z,35.28
2023-01-22T20:06:23.976Z,33.22
2023-01-22T20:08:51.287Z,25.42
2023-01-22T20:11:18.979Z,25.42
2023-01-22T20:13:46.241Z,32.00
2023-01-22T20:16:21.086Z,31.67
2023-01-22T20:18:49.122Z,20.02
2023-01-22T20:21:17.020Z,28.55
2023-01-22T20:23:44.839Z,27.77
2023-01-22T20:26:12.440Z,31.17
2023-01-22T20:28:39.766Z,26.48
2023-01-22T20:31:09.843Z,24.40
2023-01-22T20:33:37.503Z,19.92
2023-01-22T20:36:08.814Z,23.25
2023-01-22T20:38:36.191Z,20.92
2023-01-22T20:41:05.067Z,20.80
2023-01-22T20:43:32.905Z,28.48
2023-01-22T20:46:00.365Z,27.30
2023-01-22T20:48:27.624Z,25.58
2023-01-22T20:50:54.879Z,30.77
2023-01-22T20:53:22.872Z,21.98
2023-01-22T20:55:58.407Z,24.45
2023-01-22T20:58:28.840Z,26.38
2023-01-22T21:00:56.574Z,23.27
2023-01-22T21:03:24.380Z,24.05
2023-01-22T21:05:51.778Z,26.13
2023-01-22T21:08:18.956Z,28.10
2023-01-22T21:10:55.748Z,23.20
2023-01-22T21:13:23.702Z,31.65
2023-01-22T21:15:51.494Z,21.45
2023-01-22T21:18:18.941Z,31.42
2023-01-22T21:20:46.202Z,22.92
2023-01-22T21:23:13.456Z,28.45
2023-01-22T21:25:40.626Z,29.67
2023-01-22T21:28:07.743Z,29.88
2023-01-22T21:30:35.471Z,23.38
2023-01-22T21:33:02.691Z,27.40
2023-01-22T21:35:29.861Z,30.05
2023-01-22T21:37:57.060Z,26.38
2023-01-22T21:40:24.254Z,32.05
2023-01-22T21:43:10.022Z,24.50
2023-01-22T21:45:59.459Z,26.52
2023-01-22T21:48:28.842Z,39.15
2023-01-22T21:50:56.086Z,37.95
2023-01-22T21:53:23.365Z,31.80
2023-01-22T21:55:51.618Z,32.72
2023-01-22T21:58:18.867Z,35.10
2023-01-22T22:00:46.084Z,29.60
2023-01-22T22:03:13.296Z,22.90
2023-01-22T22:05:41.510Z,33.50
2023-01-22T22:08:09.074Z,28.15
2023-01-22T22:10:36.174Z,32.85
2023-01-22T22:13:03.330Z,33.05
2023-01-22T22:15:30.426Z,21.42
2023-01-22T22:17:57.661Z,28.70
2023-01-22T22:20:24.807Z,18.13
2023-01-22T22:22:51.994Z,25.30
2023-01-22T22:25:19.153Z,28.85
2023-01-22T22:27:46.291Z,25.08
2023-01-22T22:30:13.743Z,28.52
2023-01-22T22:32:40.895Z,28.50
2023-01-22T22:35:08.347Z,19.42
2023-01-22T22:37:35.539Z,19.73
2023-01-22T22:40:02.686Z,25.63
2023-01-22T22:42:29.807Z,20.88
2023-01-22T22:44:57.032Z,18.88
2023-01-22T22:47:24.196Z,21.02
2023-01-22T22:49:51.343Z,22.73
2023-01-22T22:52:18.485Z,20.23
2023-01-22T22:54:45.825Z,18.25
2023-01-22T22:57:13.057Z,19.50
2023-01-22T22:59:40.272Z,18.27
2023-01-22T23:02:09.240Z,24.83
2023-01-22T23:04:36.572Z,22.88
2023-01-22T23:07:03.761Z,19.75
2023-01-22T23:09:30.969Z,18.40
2023-01-22T23:12:01.718Z,24.52
2023-01-22T23:14:29.046Z,23.15
2023-01-22T23:16:57.625Z,17.67
2023-01-22T23:19:26.296Z,45.63
2023-01-22T23:21:56.113Z,18.00
2023-01-22T23:24:23.349Z,24.10
2023-01-22T23:26:50.577Z,19.13
2023-01-22T23:29:19.504Z,24.73
2023-01-22T23:31:46.758Z,25.55
2023-01-22T23:34:15.179Z,21.17
2023-01-22T23:36:44.331Z,25.88
2023-01-22T23:39:12.289Z,24.15
2023-01-22T23:41:39.551Z,26.17
2023-01-22T23:44:07.969Z,21.40
2023-01-22T23:46:36.435Z,23.88
2023-01-22T23:49:04.486Z,26.77
2023-01-22T23:51:32.023Z,25.88
2023-01-22T23:53:59.284Z,27.70
2023-01-22T23:56:31.574Z,31.17
2023-01-22T23:58:59.190Z,28.50
